Time;durP1;ratioP1;P1;durP2;ratioP2;P2;SDS_P1;SDS_P2;PMS_P1;PMS_P2;Temp;Humidity;BMP_temperature;BMP_pressure;BME280_temperature;BME280_humidity;BME280_pressure;Samples;Min_cycle;Max_cycle;Signal;HPM_P1;HPM_P2
2020/12/09 00:00:29;;;;;;;72.90;39.33;;;;;;;;;;2087796;28;20608;-54
2020/12/09 00:01:30;;;;;;;74.37;37.57;;;;;;;;;;2083518;28;20180;-55
2020/12/09 00:02:30;;;;;;;70.73;38.40;;;;;;;;;;2083950;28;20172;-54
2020/12/09 00:03:30;;;;;;;113.10;43.27;;;;;;;;;;2074403;28;20641;-52
2020/12/09 00:04:30;;;;;;;73.73;38.50;;;;;;;;;;2078069;28;20256;-53
2020/12/09 00:05:31;;;;;;;88.53;38.03;;;;;;;;;;2074594;28;20181;-55
2020/12/09 00:06:35;;;;;;;69.17;37.17;;;;;;;;;;2074157;28;20237;-54
2020/12/09 00:07:36;;;;;;;64.77;35.57;;;;;;;;;;2066639;28;20208;-58
2020/12/09 00:08:36;;;;;;;76.33;36.40;;;;;;;;;;2066661;28;20189;-57
2020/12/09 00:09:36;;;;;;;101.87;38.53;;;;;;;;;;2081911;28;20191;-56
2020/12/09 00:10:37;;;;;;;55.03;32.73;;;;;;;;;;2082652;28;20211;-55
2020/12/09 00:11:37;;;;;;;72.70;36.97;;;;;;;;;;2077115;28;20243;-56
2020/12/09 00:12:37;;;;;;;62.57;35.40;;;;;;;;;;2090853;28;20205;-60
2020/12/09 00:13:38;;;;;;;69.80;34.53;;;;;;;;;;2082791;28;20200;-55
2020/12/09 00:14:39;;;;;;;71.70;35.77;;;;;;;;;;2082808;28;20176;-60
2020/12/09 00:15:39;;;;;;;53.40;33.93;;;;;;;;;;2084087;28;20741;-60
2020/12/09 00:16:39;;;;;;;60.50;34.93;;;;;;;;;;2083098;28;20559;-53
2020/12/09 00:17:39;;;;;;;102.53;36.10;;;;;;;;;;2084573;28;20181;-58
2020/12/09 00:18:39;;;;;;;53.43;32.10;;;;;;;;;;2083385;28;20186;-59
2020/12/09 00:19:40;;;;;;;66.20;32.83;;;;;;;;;;2082907;28;20191;-60
2020/12/09 00:20:40;;;;;;;52.93;31.93;;;;;;;;;;2082641;28;20733;-61
2020/12/09 00:21:40;;;;;;;70.03;32.90;;;;;;;;;;2085095;28;20174;-56
2020/12/09 00:22:41;;;;;;;66.90;33.40;;;;;;;;;;2075228;28;20207;-58
2020/12/09 00:23:41;;;;;;;69.23;33.73;;;;;;;;;;2083325;28;20711;-57
2020/12/09 00:24:41;;;;;;;68.37;34.60;;;;;;;;;;2083381;28;20180;-58
2020/12/09 00:25:41;;;;;;;103.53;34.03;;;;;;;;;;2086417;28;20168;-54
2020/12/09 00:26:42;;;;;;;54.10;33.93;;;;;;;;;;2083700;28;20172;-57
2020/12/09 00:27:42;;;;;;;83.17;35.57;;;;;;;;;;2082317;28;20684;-58
2020/12/09 00:28:42;;;;;;;58.30;33.57;;;;;;;;;;2080592;28;20569;-57
2020/12/09 00:29:43;;;;;;;68.47;33.33;;;;;;;;;;2073663;28;20542;-61
2020/12/09 00:30:43;;;;;;;55.50;33.57;;;;;;;;;;2073973;28;20200;-58
2020/12/09 00:31:43;;;;;;;64.10;34.27;;;;;;;;;;2076561;28;20181;-56
2020/12/09 00:32:43;;;;;;;81.20;35.17;;;;;;;;;;2083117;28;20177;-53
2020/12/09 00:33:45;;;;;;;64.87;33.00;;;;;;;;;;2082314;28;20632;-56
2020/12/09 00:34:45;;;;;;;77.80;32.93;;;;;;;;;;2082422;28;20644;-54
2020/12/09 00:35:45;;;;;;;64.67;33.97;;;;;;;;;;2082022;28;20201;-56
2020/12/09 00:36:46;;;;;;;107.47;36.10;;;;;;;;;;2081929;28;20184;-54
2020/12/09 00:37:46;;;;;;;59.03;32.87;;;;;;;;;;2075383;28;20196;-54
2020/12/09 00:38:47;;;;;;;56.47;33.30;;;;;;;;;;2066456;28;20280;-56
2020/12/09 00:39:47;;;;;;;117.50;39.50;;;;;;;;;;2073194;28;20181;-58
2020/12/09 00:40:48;;;;;;;106.10;35.20;;;;;;;;;;2087427;28;20195;-53
2020/12/09 00:41:48;;;;;;;75.23;34.83;;;;;;;;;;2074548;28;20664;-57
2020/12/09 00:42:48;;;;;;;90.80;33.90;;;;;;;;;;2064683;28;20235;-58
2020/12/09 00:43:49;;;;;;;168.73;42.27;;;;;;;;;;2074187;28;20189;-57
2020/12/09 00:44:49;;;;;;;114.67;39.23;;;;;;;;;;2081092;28;20173;-52
2020/12/09 00:45:49;;;;;;;73.23;33.73;;;;;;;;;;2082426;28;20225;-55
2020/12/09 00:46:49;;;;;;;78.00;33.40;;;;;;;;;;2073955;28;20649;-55
2020/12/09 00:47:50;;;;;;;82.63;33.20;;;;;;;;;;2071296;28;20174;-58
2020/12/09 00:48:50;;;;;;;74.50;32.30;;;;;;;;;;2074093;28;20203;-57
2020/12/09 00:51:14;;;;;;;74.17;33.50;;;;;;;;;;2077005;28;20194;-53
2020/12/09 00:52:14;;;;;;;79.50;35.27;;;;;;;;;;2085573;28;20578;-57
2020/12/09 00:53:14;;;;;;;87.53;34.77;;;;;;;;;;2084086;28;20187;-54
2020/12/09 00:54:15;;;;;;;81.70;36.13;;;;;;;;;;2081466;28;20203;-54
2020/12/09 00:55:15;;;;;;;96.30;35.30;;;;;;;;;;2072413;28;20173;-53
2020/12/09 00:56:20;;;;;;;102.17;35.10;;;;;;;;;;2064890;28;20603;-56
2020/12/09 00:57:23;;;;;;;115.90;38.30;;;;;;;;;;2063244;28;20415;-56
2020/12/09 00:58:23;;;;;;;101.73;37.63;;;;;;;;;;2064693;28;20678;-55
2020/12/09 00:59:24;;;;;;;75.00;34.20;;;;;;;;;;2075090;28;20177;-52
2020/12/09 01:00:24;;;;;;;68.43;35.10;;;;;;;;;;2081930;28;20204;-55
2020/12/09 01:01:45;;;;;;;72.37;34.97;;;;;;;;;;2077531;28;20595;-58
2020/12/09 01:02:51;;;;;;;84.63;38.10;;;;;;;;;;2080910;28;20398;-57
2020/12/09 01:03:52;;;;;;;105.13;37.10;;;;;;;;;;2078776;28;20585;-57
2020/12/09 01:04:52;;;;;;;86.30;36.33;;;;;;;;;;2075968;28;20172;-56
2020/12/09 01:05:52;;;;;;;59.80;32.53;;;;;;;;;;2081070;28;20310;-55
2020/12/09 01:06:53;;;;;;;92.77;35.90;;;;;;;;;;2081332;28;20180;-53
2020/12/09 01:07:53;;;;;;;104.40;38.30;;;;;;;;;;2070763;28;20195;-56
2020/12/09 01:08:53;;;;;;;100.60;39.50;;;;;;;;;;2072938;28;20185;-59
2020/12/09 01:09:53;;;;;;;118.13;40.43;;;;;;;;;;2081854;28;20279;-58
2020/12/09 01:10:54;;;;;;;111.97;39.83;;;;;;;;;;2082582;28;20188;-54
2020/12/09 01:12:00;;;;;;;73.97;35.63;;;;;;;;;;2080851;28;20164;-58
2020/12/09 01:13:00;;;;;;;138.70;39.40;;;;;;;;;;2082580;28;20203;-54
2020/12/09 01:14:00;;;;;;;147.80;42.70;;;;;;;;;;2083145;28;20223;-58
2020/12/09 01:15:01;;;;;;;67.87;36.23;;;;;;;;;;2082578;28;20264;-57
2020/12/09 01:16:01;;;;;;;70.70;36.53;;;;;;;;;;2082640;28;20318;-54
2020/12/09 01:17:01;;;;;;;78.70;36.50;;;;;;;;;;2083306;28;20180;-57
2020/12/09 01:18:01;;;;;;;71.17;35.97;;;;;;;;;;2083514;28;20175;-56
2020/12/09 01:19:02;;;;;;;140.80;39.90;;;;;;;;;;2080809;28;20306;-58
2020/12/09 01:20:03;;;;;;;102.97;35.97;;;;;;;;;;2078993;28;20180;-57
2020/12/09 01:21:03;;;;;;;63.93;33.20;;;;;;;;;;2083078;28;20168;-56
2020/12/09 01:22:04;;;;;;;94.43;37.43;;;;;;;;;;2081742;28;20231;-55
2020/12/09 01:23:05;;;;;;;63.83;32.97;;;;;;;;;;2082561;28;20226;-53
2020/12/09 01:24:05;;;;;;;61.70;33.17;;;;;;;;;;2081629;28;20434;-57
2020/12/09 01:25:05;;;;;;;89.20;36.83;;;;;;;;;;2081038;28;20176;-58
2020/12/09 01:26:09;;;;;;;105.43;34.80;;;;;;;;;;2084365;28;20176;-55
2020/12/09 01:27:09;;;;;;;103.37;35.07;;;;;;;;;;2080577;28;20210;-56
2020/12/09 01:28:10;;;;;;;81.03;33.57;;;;;;;;;;2081359;28;20176;-58
2020/12/09 01:29:10;;;;;;;72.50;33.77;;;;;;;;;;2081020;28;20254;-58
2020/12/09 01:30:10;;;;;;;83.20;31.63;;;;;;;;;;2085448;28;20172;-56
2020/12/09 01:31:11;;;;;;;75.43;33.50;;;;;;;;;;2080580;28;20641;-58
2020/12/09 01:32:11;;;;;;;86.20;34.50;;;;;;;;;;2082641;28;20172;-55
2020/12/09 01:33:11;;;;;;;68.60;32.50;;;;;;;;;;2080313;28;20192;-56
2020/12/09 01:34:11;;;;;;;74.47;32.53;;;;;;;;;;2081327;28;20226;-54
2020/12/09 01:35:11;;;;;;;98.23;32.80;;;;;;;;;;2081078;28;20178;-59
2020/12/09 01:36:12;;;;;;;90.57;31.27;;;;;;;;;;2081164;28;20180;-54
2020/12/09 01:37:12;;;;;;;66.00;29.77;;;;;;;;;;2080430;28;20188;-57
2020/12/09 01:38:12;;;;;;;69.57;30.90;;;;;;;;;;2081139;28;20172;-54
2020/12/09 01:39:12;;;;;;;56.67;31.33;;;;;;;;;;2083974;28;20548;-58
2020/12/09 01:40:13;;;;;;;51.80;31.90;;;;;;;;;;2084547;28;20188;-58
2020/12/09 01:41:13;;;;;;;60.47;33.27;;;;;;;;;;2082511;28;20225;-60
2020/12/09 01:42:13;;;;;;;57.17;32.30;;;;;;;;;;2081105;28;20172;-59
2020/12/09 01:43:14;;;;;;;106.23;37.13;;;;;;;;;;2085240;28;20191;-56
2020/12/09 01:44:14;;;;;;;51.50;32.50;;;;;;;;;;2085098;28;20724;-56
2020/12/09 01:45:14;;;;;;;59.77;32.07;;;;;;;;;;2079730;28;20230;-53
2020/12/09 01:46:15;;;;;;;50.17;31.97;;;;;;;;;;2075645;28;20218;-58
2020/12/09 01:47:16;;;;;;;71.23;35.37;;;;;;;;;;2080496;28;20268;-56
2020/12/09 01:48:16;;;;;;;59.83;33.00;;;;;;;;;;2081394;28;20179;-56
2020/12/09 01:49:17;;;;;;;73.07;32.50;;;;;;;;;;2081427;28;20211;-55
2020/12/09 01:50:17;;;;;;;70.30;33.73;;;;;;;;;;2081193;28;20259;-56
2020/12/09 01:51:17;;;;;;;72.87;32.33;;;;;;;;;;2082412;28;20560;-56
2020/12/09 01:52:18;;;;;;;54.87;30.10;;;;;;;;;;2078204;28;20187;-57
2020/12/09 01:53:18;;;;;;;58.03;28.80;;;;;;;;;;2081336;28;20199;-57
2020/12/09 01:54:18;;;;;;;53.97;31.73;;;;;;;;;;2082865;28;20597;-57
2020/12/09 01:55:18;;;;;;;66.57;30.73;;;;;;;;;;2084078;28;20226;-56
2020/12/09 01:56:19;;;;;;;58.93;30.87;;;;;;;;;;2082797;28;20202;-58
2020/12/09 01:57:19;;;;;;;53.37;31.47;;;;;;;;;;2082243;28;20189;-58
2020/12/09 01:58:19;;;;;;;48.27;29.90;;;;;;;;;;2082631;28;20176;-57
2020/12/09 01:59:19;;;;;;;47.03;29.30;;;;;;;;;;2082688;28;20172;-58
2020/12/09 02:00:20;;;;;;;49.27;29.57;;;;;;;;;;2075741;28;20197;-57
2020/12/09 02:01:21;;;;;;;56.53;30.77;;;;;;;;;;2073784;28;20189;-55
2020/12/09 02:02:21;;;;;;;75.60;31.90;;;;;;;;;;2085177;28;20180;-57
2020/12/09 02:03:21;;;;;;;66.00;32.70;;;;;;;;;;2081958;28;20188;-59
2020/12/09 02:04:22;;;;;;;67.03;30.57;;;;;;;;;;2076259;28;20177;-60
2020/12/09 02:05:22;;;;;;;55.43;30.80;;;;;;;;;;2079530;28;20172;-56
2020/12/09 02:06:22;;;;;;;58.50;30.60;;;;;;;;;;2081485;28;20185;-57
2020/12/09 02:07:26;;;;;;;53.27;30.03;;;;;;;;;;2077889;28;20173;-54
2020/12/09 02:08:26;;;;;;;48.10;30.27;;;;;;;;;;2079647;28;20180;-57
2020/12/09 02:09:26;;;;;;;55.23;32.43;;;;;;;;;;2080287;28;20200;-54
2020/12/09 02:10:27;;;;;;;56.30;31.87;;;;;;;;;;2081753;28;20188;-56
2020/12/09 02:11:27;;;;;;;57.27;32.50;;;;;;;;;;2083229;28;20177;-57
2020/12/09 02:12:27;;;;;;;51.93;29.70;;;;;;;;;;2081552;28;20189;-58
2020/12/09 02:13:28;;;;;;;50.43;30.57;;;;;;;;;;2082268;28;20212;-56
2020/12/09 02:14:28;;;;;;;57.80;30.73;;;;;;;;;;2086297;28;20262;-54
2020/12/09 02:15:28;;;;;;;60.07;29.40;;;;;;;;;;2084311;28;20187;-56
2020/12/09 02:16:29;;;;;;;50.57;27.60;;;;;;;;;;2082381;28;20181;-54
2020/12/09 02:17:29;;;;;;;49.77;27.37;;;;;;;;;;2076849;28;20176;-57
2020/12/09 02:18:29;;;;;;;45.63;27.80;;;;;;;;;;2073074;28;20243;-59
2020/12/09 02:19:29;;;;;;;45.03;27.23;;;;;;;;;;2081997;28;20180;-55
2020/12/09 02:20:29;;;;;;;50.87;28.20;;;;;;;;;;2082306;28;20246;-59
2020/12/09 02:21:33;;;;;;;44.40;29.10;;;;;;;;;;2078109;28;20235;-59
2020/12/09 02:22:33;;;;;;;51.33;29.50;;;;;;;;;;2080423;28;20220;-58
2020/12/09 02:23:34;;;;;;;53.90;30.67;;;;;;;;;;2083251;28;20204;-59
2020/12/09 02:24:34;;;;;;;66.97;31.33;;;;;;;;;;2074666;28;20180;-58
2020/12/09 02:25:34;;;;;;;74.00;31.73;;;;;;;;;;2074992;28;20199;-57
2020/12/09 02:26:39;;;;;;;63.10;30.57;;;;;;;;;;2083301;28;20177;-54
2020/12/09 02:27:39;;;;;;;65.77;29.30;;;;;;;;;;2083262;28;20179;-57
2020/12/09 02:28:39;;;;;;;54.50;31.80;;;;;;;;;;2075231;28;20703;-57
2020/12/09 02:29:40;;;;;;;52.43;30.13;;;;;;;;;;2074844;28;20181;-54
2020/12/09 02:30:40;;;;;;;53.17;30.87;;;;;;;;;;2067201;28;20760;-57
2020/12/09 02:31:41;;;;;;;52.73;30.93;;;;;;;;;;2075295;28;20173;-59
2020/12/09 02:32:41;;;;;;;55.37;31.40;;;;;;;;;;2091994;28;20184;-55
2020/12/09 02:33:41;;;;;;;60.77;32.80;;;;;;;;;;2079882;28;20172;-54
2020/12/09 02:34:41;;;;;;;53.37;31.77;;;;;;;;;;2082360;28;20180;-54
2020/12/09 02:35:42;;;;;;;51.80;30.77;;;;;;;;;;2084982;28;20242;-54
2020/12/09 02:36:42;;;;;;;60.87;31.07;;;;;;;;;;2082923;28;20230;-56
2020/12/09 02:37:43;;;;;;;59.03;30.30;;;;;;;;;;2086912;28;20211;-60
2020/12/09 02:38:43;;;;;;;52.57;31.13;;;;;;;;;;2088790;28;20192;-59
2020/12/09 02:39:43;;;;;;;52.47;31.00;;;;;;;;;;2092260;28;20617;-58
2020/12/09 02:40:43;;;;;;;57.27;33.67;;;;;;;;;;2087541;28;20192;-55
2020/12/09 02:41:44;;;;;;;55.40;31.57;;;;;;;;;;2089443;28;20175;-54
2020/12/09 02:42:44;;;;;;;63.27;31.33;;;;;;;;;;2086137;28;20226;-55
2020/12/09 02:43:44;;;;;;;50.60;29.10;;;;;;;;;;2086752;28;20187;-58
2020/12/09 02:44:44;;;;;;;54.53;31.87;;;;;;;;;;2087330;28;20181;-57
2020/12/09 02:45:46;;;;;;;66.30;32.43;;;;;;;;;;2090823;28;20191;-59
2020/12/09 02:46:46;;;;;;;47.07;29.83;;;;;;;;;;2079321;28;20176;-58
2020/12/09 02:47:47;;;;;;;54.90;32.10;;;;;;;;;;2080717;28;20464;-59
2020/12/09 02:48:47;;;;;;;47.77;31.23;;;;;;;;;;2087170;28;20184;-57
2020/12/09 02:49:47;;;;;;;50.60;32.47;;;;;;;;;;2093536;28;20203;-59
2020/12/09 02:50:48;;;;;;;52.37;31.23;;;;;;;;;;2086284;28;20271;-60
2020/12/09 02:51:48;;;;;;;48.83;29.90;;;;;;;;;;2085787;28;20271;-58
2020/12/09 02:52:49;;;;;;;47.47;30.07;;;;;;;;;;2084404;28;20259;-57
2020/12/09 02:53:49;;;;;;;54.07;30.67;;;;;;;;;;2078293;28;20208;-57
2020/12/09 02:54:49;;;;;;;54.67;32.37;;;;;;;;;;2086935;28;20170;-57
2020/12/09 02:55:49;;;;;;;51.27;30.53;;;;;;;;;;2081899;28;20241;-57
2020/12/09 02:56:50;;;;;;;50.43;30.43;;;;;;;;;;2081066;28;20180;-57
2020/12/09 02:57:50;;;;;;;59.87;29.77;;;;;;;;;;2082025;28;20173;-56
2020/12/09 02:58:50;;;;;;;62.13;31.63;;;;;;;;;;2086309;28;20196;-61
2020/12/09 02:59:51;;;;;;;66.70;30.10;;;;;;;;;;2087439;28;20196;-59
2020/12/09 03:00:51;;;;;;;52.07;28.73;;;;;;;;;;2085697;28;20208;-59
2020/12/09 03:01:51;;;;;;;48.40;29.00;;;;;;;;;;2074103;28;20173;-59
2020/12/09 03:02:51;;;;;;;46.43;29.30;;;;;;;;;;2073893;28;20652;-61
2020/12/09 03:03:52;;;;;;;57.03;30.43;;;;;;;;;;2073630;28;20185;-58
2020/12/09 03:04:52;;;;;;;52.40;29.50;;;;;;;;;;2073581;28;20180;-57
2020/12/09 03:05:54;;;;;;;52.37;30.20;;;;;;;;;;2065484;28;20162;-57
2020/12/09 03:06:54;;;;;;;44.60;29.90;;;;;;;;;;2081304;28;20179;-60
2020/12/09 03:07:55;;;;;;;50.67;31.13;;;;;;;;;;2081578;28;20180;-58
2020/12/09 03:08:55;;;;;;;50.47;30.27;;;;;;;;;;2082203;28;20176;-58
2020/12/09 03:09:55;;;;;;;55.03;30.67;;;;;;;;;;2082345;28;20563;-58
2020/12/09 03:10:56;;;;;;;68.03;31.90;;;;;;;;;;2073525;28;20223;-57
2020/12/09 03:11:56;;;;;;;59.33;30.63;;;;;;;;;;2073290;28;20204;-58
2020/12/09 03:12:57;;;;;;;59.50;29.77;;;;;;;;;;2081788;28;20179;-59
2020/12/09 03:13:58;;;;;;;67.03;31.10;;;;;;;;;;2095344;23;21488;-56
2020/12/09 03:14:58;;;;;;;57.80;29.57;;;;;;;;;;2091817;28;20184;-57
2020/12/09 03:15:59;;;;;;;70.37;30.57;;;;;;;;;;2092242;28;20191;-57
2020/12/09 03:16:59;;;;;;;60.67;30.70;;;;;;;;;;2090859;28;20220;-60
2020/12/09 03:18:00;;;;;;;48.60;28.80;;;;;;;;;;2092165;28;20174;-57
2020/12/09 03:19:00;;;;;;;56.83;30.20;;;;;;;;;;2091016;28;20882;-56
2020/12/09 03:20:00;;;;;;;49.20;30.03;;;;;;;;;;2090575;28;20196;-56
2020/12/09 03:21:01;;;;;;;55.37;31.10;;;;;;;;;;2090383;28;20176;-53
2020/12/09 03:22:01;;;;;;;67.60;32.20;;;;;;;;;;2090376;28;20192;-52
2020/12/09 03:23:01;;;;;;;59.43;31.63;;;;;;;;;;2090669;28;20167;-53
2020/12/09 03:24:02;;;;;;;58.07;32.63;;;;;;;;;;2087994;28;20547;-51
2020/12/09 03:25:02;;;;;;;64.60;32.07;;;;;;;;;;2082756;28;20592;-52
2020/12/09 03:26:03;;;;;;;61.97;32.50;;;;;;;;;;2078699;28;20188;-53
2020/12/09 03:27:04;;;;;;;53.50;31.37;;;;;;;;;;2076087;28;20164;-55
2020/12/09 03:28:04;;;;;;;73.67;32.77;;;;;;;;;;2086232;28;20173;-55
2020/12/09 03:29:04;;;;;;;55.37;30.33;;;;;;;;;;2085853;28;20236;-54
2020/12/09 03:30:05;;;;;;;55.70;29.07;;;;;;;;;;2087089;28;20184;-54
2020/12/09 03:31:05;;;;;;;54.93;31.60;;;;;;;;;;2085747;28;20163;-54
2020/12/09 03:32:06;;;;;;;46.43;29.00;;;;;;;;;;2089161;28;20207;-54
2020/12/09 03:33:06;;;;;;;55.67;28.43;;;;;;;;;;2086149;28;20171;-57
2020/12/09 03:34:06;;;;;;;47.13;29.60;;;;;;;;;;2089260;28;20226;-55
2020/12/09 03:35:06;;;;;;;53.70;30.07;;;;;;;;;;2082647;28;20172;-56
2020/12/09 03:36:07;;;;;;;54.63;31.07;;;;;;;;;;2083506;28;20184;-51
2020/12/09 03:37:07;;;;;;;57.20;31.93;;;;;;;;;;2077907;28;20200;-55
2020/12/09 03:38:09;;;;;;;50.13;31.13;;;;;;;;;;2081265;28;20181;-54
2020/12/09 03:39:09;;;;;;;65.80;31.33;;;;;;;;;;2086516;28;20168;-55
2020/12/09 03:40:10;;;;;;;64.30;31.47;;;;;;;;;;2086359;28;20188;-53
2020/12/09 03:41:10;;;;;;;51.67;31.07;;;;;;;;;;2085302;28;20168;-53
2020/12/09 03:42:10;;;;;;;53.77;30.30;;;;;;;;;;2085862;28;20606;-53
2020/12/09 03:43:10;;;;;;;49.90;30.07;;;;;;;;;;2086617;28;20183;-53
2020/12/09 03:44:11;;;;;;;63.17;33.07;;;;;;;;;;2086291;28;20194;-54
2020/12/09 03:45:11;;;;;;;69.37;32.37;;;;;;;;;;2077675;28;20177;-55
2020/12/09 03:46:11;;;;;;;54.77;30.13;;;;;;;;;;2075926;28;20172;-55
2020/12/09 03:47:11;;;;;;;54.97;30.10;;;;;;;;;;2077460;28;20176;-60
2020/12/09 03:48:11;;;;;;;75.03;32.73;;;;;;;;;;2080963;28;20730;-56
2020/12/09 03:49:12;;;;;;;69.63;30.77;;;;;;;;;;2087817;28;20178;-54
2020/12/09 03:50:12;;;;;;;62.43;32.97;;;;;;;;;;2087979;28;20223;-53
2020/12/09 03:51:12;;;;;;;53.03;30.73;;;;;;;;;;2090651;28;20167;-55
2020/12/09 03:52:13;;;;;;;52.77;30.03;;;;;;;;;;2079352;28;20196;-53
2020/12/09 03:53:13;;;;;;;49.93;28.83;;;;;;;;;;2077111;28;20173;-53
2020/12/09 03:54:13;;;;;;;49.43;30.00;;;;;;;;;;2086639;28;20223;-55
2020/12/09 03:55:13;;;;;;;45.67;28.43;;;;;;;;;;2086180;28;20644;-54
2020/12/09 03:56:13;;;;;;;49.90;29.63;;;;;;;;;;2086176;28;20181;-56
2020/12/09 03:57:14;;;;;;;46.93;29.33;;;;;;;;;;2080946;28;20211;-53
2020/12/09 03:58:14;;;;;;;51.23;29.73;;;;;;;;;;2081037;28;20563;-52
2020/12/09 03:59:15;;;;;;;50.73;30.83;;;;;;;;;;2081943;28;20172;-51
2020/12/09 04:00:15;;;;;;;43.20;29.20;;;;;;;;;;2070226;28;20872;-52
2020/12/09 04:01:17;;;;;;;52.63;29.90;;;;;;;;;;2081467;28;20331;-55
2020/12/09 04:02:18;;;;;;;47.93;29.90;;;;;;;;;;2088253;28;20708;-53
2020/12/09 04:03:18;;;;;;;46.53;29.77;;;;;;;;;;2086169;28;20212;-56
2020/12/09 04:04:18;;;;;;;48.43;29.17;;;;;;;;;;2085089;28;20207;-55
2020/12/09 04:05:19;;;;;;;46.53;29.87;;;;;;;;;;2088570;28;20172;-53
2020/12/09 04:06:19;;;;;;;51.17;30.73;;;;;;;;;;2089476;28;20239;-52
2020/12/09 04:07:19;;;;;;;47.93;30.70;;;;;;;;;;2085501;28;20168;-54
2020/12/09 04:08:19;;;;;;;51.27;29.40;;;;;;;;;;2082800;28;20198;-52
2020/12/09 04:09:20;;;;;;;46.73;28.33;;;;;;;;;;2088657;28;20286;-53
2020/12/09 04:10:20;;;;;;;47.33;29.77;;;;;;;;;;2086902;28;20546;-53
2020/12/09 04:11:20;;;;;;;45.67;28.53;;;;;;;;;;2088214;28;20582;-55
2020/12/09 04:12:23;;;;;;;47.30;29.17;;;;;;;;;;2087407;28;20556;-56
2020/12/09 04:13:23;;;;;;;43.43;30.33;;;;;;;;;;2084107;28;20195;-56
2020/12/09 04:14:23;;;;;;;44.57;29.30;;;;;;;;;;2088235;28;20585;-55
2020/12/09 04:15:24;;;;;;;45.10;28.90;;;;;;;;;;2084671;28;20176;-57
2020/12/09 04:16:24;;;;;;;48.77;29.73;;;;;;;;;;2077596;28;20176;-56
2020/12/09 04:17:24;;;;;;;46.33;28.17;;;;;;;;;;2079128;28;20653;-56
2020/12/09 04:18:25;;;;;;;45.97;29.83;;;;;;;;;;2084559;28;20176;-55
2020/12/09 04:19:25;;;;;;;40.73;27.37;;;;;;;;;;2085457;28;20195;-53
2020/12/09 04:20:25;;;;;;;44.10;28.00;;;;;;;;;;2089070;28;20218;-57
2020/12/09 04:21:25;;;;;;;42.93;28.03;;;;;;;;;;2081879;28;20176;-55
2020/12/09 04:22:26;;;;;;;44.07;27.90;;;;;;;;;;2073218;28;20195;-55
2020/12/09 04:23:26;;;;;;;46.57;29.30;;;;;;;;;;2074826;28;20212;-55
2020/12/09 04:24:26;;;;;;;40.93;27.67;;;;;;;;;;2079960;28;20192;-56
2020/12/09 04:25:26;;;;;;;44.33;28.33;;;;;;;;;;2082471;28;20735;-54
2020/12/09 04:26:27;;;;;;;42.63;27.90;;;;;;;;;;2090578;28;20191;-54
2020/12/09 04:27:27;;;;;;;46.13;28.47;;;;;;;;;;2089034;28;20167;-54
2020/12/09 04:28:27;;;;;;;41.53;27.83;;;;;;;;;;2090442;28;20159;-53
2020/12/09 04:29:27;;;;;;;45.73;29.13;;;;;;;;;;2091960;28;20206;-57
2020/12/09 04:30:28;;;;;;;44.30;28.70;;;;;;;;;;2084691;28;20186;-56
2020/12/09 04:31:28;;;;;;;47.93;29.30;;;;;;;;;;2086778;28;20640;-53
2020/12/09 04:32:28;;;;;;;50.27;29.63;;;;;;;;;;2087104;28;20207;-53
2020/12/09 04:33:31;;;;;;;54.53;28.80;;;;;;;;;;2088667;28;20258;-53
2020/12/09 04:34:32;;;;;;;44.97;29.17;;;;;;;;;;2091058;28;20190;-55
2020/12/09 04:35:33;;;;;;;41.53;27.77;;;;;;;;;;2086519;28;20207;-53
2020/12/09 04:36:33;;;;;;;46.93;30.37;;;;;;;;;;2089030;28;20674;-57
2020/12/09 04:37:34;;;;;;;44.60;28.87;;;;;;;;;;2086081;28;20207;-54
2020/12/09 04:38:34;;;;;;;47.23;27.87;;;;;;;;;;2074277;28;20227;-53
2020/12/09 04:39:34;;;;;;;60.80;29.07;;;;;;;;;;2073386;28;20234;-58
2020/12/09 04:40:34;;;;;;;45.57;28.73;;;;;;;;;;2078030;28;20268;-55
2020/12/09 04:41:35;;;;;;;46.37;28.90;;;;;;;;;;2087835;28;20278;-57
2020/12/09 04:42:35;;;;;;;47.00;30.33;;;;;;;;;;2082414;28;20204;-55
2020/12/09 04:43:35;;;;;;;49.23;30.10;;;;;;;;;;2080379;28;20191;-55
2020/12/09 04:44:35;;;;;;;47.00;30.97;;;;;;;;;;2082653;28;20191;-53
2020/12/09 04:45:36;;;;;;;50.47;30.23;;;;;;;;;;2091722;28;20818;-53
2020/12/09 04:46:40;;;;;;;50.97;30.60;;;;;;;;;;2089331;28;20167;-56
2020/12/09 04:47:41;;;;;;;47.63;29.57;;;;;;;;;;2083870;28;20176;-52
2020/12/09 04:48:45;;;;;;;45.50;29.07;;;;;;;;;;2082044;28;20738;-60
2020/12/09 04:49:46;;;;;;;49.03;30.27;;;;;;;;;;2074905;28;20188;-55
2020/12/09 04:50:50;;;;;;;46.93;27.37;;;;;;;;;;2076477;28;20667;-54
2020/12/09 04:52:05;;;;;;;46.17;27.50;;;;;;;;;;2084654;28;20184;-52
2020/12/09 04:53:11;;;;;;;43.33;27.63;;;;;;;;;;2084867;28;20198;-52
2020/12/09 04:54:15;;;;;;;45.47;27.87;;;;;;;;;;2088134;28;20575;-53
2020/12/09 04:55:16;;;;;;;42.13;28.47;;;;;;;;;;2075877;28;20257;-56
2020/12/09 04:56:22;;;;;;;48.37;28.83;;;;;;;;;;2069101;28;20193;-54
2020/12/09 04:57:29;;;;;;;50.03;29.97;;;;;;;;;;2080670;28;20180;-54
2020/12/09 04:58:38;;;;;;;41.87;27.13;;;;;;;;;;2095496;28;20593;-54
2020/12/09 04:59:42;;;;;;;48.77;27.87;;;;;;;;;;2092539;28;20191;-54
2020/12/09 05:00:45;;;;;;;47.53;27.80;;;;;;;;;;2090532;28;20215;-54
2020/12/09 05:01:58;;;;;;;45.47;28.83;;;;;;;;;;2082518;28;20187;-53
2020/12/09 05:03:12;;;;;;;43.53;27.87;;;;;;;;;;2079229;28;20184;-55
2020/12/09 05:04:15;;;;;;;41.97;26.07;;;;;;;;;;2078563;28;20283;-56
2020/12/09 05:05:16;;;;;;;45.27;26.97;;;;;;;;;;2059932;28;20178;-52
2020/12/09 05:06:18;;;;;;;51.70;27.47;;;;;;;;;;2067432;28;20181;-56
2020/12/09 05:07:21;;;;;;;47.80;27.87;;;;;;;;;;2081207;28;20183;-55
2020/12/09 05:08:22;;;;;;;42.33;28.40;;;;;;;;;;2077453;28;20184;-46
2020/12/09 05:09:26;;;;;;;44.10;27.40;;;;;;;;;;2089329;28;20198;-55
2020/12/09 05:10:26;;;;;;;40.07;25.83;;;;;;;;;;2077766;28;20180;-54
2020/12/09 05:11:27;;;;;;;41.83;27.40;;;;;;;;;;2082348;28;20687;-52
2020/12/09 05:12:28;;;;;;;49.30;29.23;;;;;;;;;;2086815;28;20172;-55
2020/12/09 05:13:28;;;;;;;46.07;29.37;;;;;;;;;;2084265;28;20180;-56
2020/12/09 05:14:29;;;;;;;48.93;29.83;;;;;;;;;;2079263;28;20240;-59
2020/12/09 05:15:30;;;;;;;46.33;30.57;;;;;;;;;;2076952;28;20181;-55
2020/12/09 05:16:33;;;;;;;45.87;30.37;;;;;;;;;;2080946;28;20183;-54
2020/12/09 05:17:38;;;;;;;55.77;29.43;;;;;;;;;;2092853;28;20568;-55
2020/12/09 05:18:40;;;;;;;53.40;28.80;;;;;;;;;;2085497;28;20188;-54
2020/12/09 05:19:41;;;;;;;46.33;27.40;;;;;;;;;;2087666;28;20215;-57
2020/12/09 05:20:41;;;;;;;49.97;29.20;;;;;;;;;;2080395;28;20208;-57
2020/12/09 05:21:45;;;;;;;45.40;29.10;;;;;;;;;;2083112;28;20687;-54
2020/12/09 05:22:45;;;;;;;47.37;28.20;;;;;;;;;;2081168;28;20176;-52
2020/12/09 05:23:48;;;;;;;47.90;29.03;;;;;;;;;;2079763;28;20308;-56
2020/12/09 05:24:49;;;;;;;51.23;30.40;;;;;;;;;;2085221;28;20595;-56
2020/12/09 05:25:49;;;;;;;49.10;28.17;;;;;;;;;;2089261;28;20254;-55
2020/12/09 05:26:50;;;;;;;55.97;29.63;;;;;;;;;;2089869;28;20638;-56
2020/12/09 05:27:50;;;;;;;50.30;28.90;;;;;;;;;;2089653;28;20191;-54
2020/12/09 05:29:04;;;;;;;49.23;29.97;;;;;;;;;;2083931;28;20225;-54
2020/12/09 05:30:05;;;;;;;49.47;30.40;;;;;;;;;;2084205;28;20167;-53
2020/12/09 05:31:05;;;;;;;46.20;29.23;;;;;;;;;;2089695;28;20726;-53
2020/12/09 05:32:05;;;;;;;50.13;30.80;;;;;;;;;;2088566;28;20187;-53
2020/12/09 05:33:06;;;;;;;53.73;32.07;;;;;;;;;;2084855;28;20234;-57
2020/12/09 05:34:22;;;;;;;52.63;28.97;;;;;;;;;;2090769;28;20195;-56
2020/12/09 05:35:22;;;;;;;51.70;29.37;;;;;;;;;;2077938;28;20216;-57
2020/12/09 05:36:26;;;;;;;49.77;28.73;;;;;;;;;;2077612;28;20177;-61
2020/12/09 05:37:26;;;;;;;49.17;28.27;;;;;;;;;;2090914;28;20167;-54
2020/12/09 05:38:27;;;;;;;48.73;29.27;;;;;;;;;;2084921;28;20297;-56
2020/12/09 05:39:28;;;;;;;51.77;28.57;;;;;;;;;;2068081;28;20188;-54
2020/12/09 05:40:28;;;;;;;64.63;29.00;;;;;;;;;;2076109;28;20220;-54
2020/12/09 05:41:30;;;;;;;70.17;30.50;;;;;;;;;;2085609;28;20188;-54
2020/12/09 05:42:30;;;;;;;62.27;31.90;;;;;;;;;;2086717;28;20237;-57
2020/12/09 05:43:31;;;;;;;62.40;30.60;;;;;;;;;;2091863;28;20229;-53
2020/12/09 05:44:31;;;;;;;52.80;31.00;;;;;;;;;;2091332;28;20226;-53
2020/12/09 05:45:31;;;;;;;54.30;30.73;;;;;;;;;;2091643;28;20219;-52
2020/12/09 05:46:32;;;;;;;52.73;32.50;;;;;;;;;;2086144;28;20394;-52
2020/12/09 05:47:32;;;;;;;57.63;31.53;;;;;;;;;;2085264;28;20188;-54
2020/12/09 05:48:32;;;;;;;53.73;30.70;;;;;;;;;;2088690;28;20168;-54
2020/12/09 05:49:37;;;;;;;60.27;31.37;;;;;;;;;;2083158;28;20200;-53
2020/12/09 05:50:44;;;;;;;66.03;33.20;;;;;;;;;;2082547;28;20200;-54
2020/12/09 05:51:49;;;;;;;65.37;30.70;;;;;;;;;;2084732;28;20176;-51
2020/12/09 05:52:50;;;;;;;61.40;29.80;;;;;;;;;;2086515;28;20200;-53
2020/12/09 05:53:50;;;;;;;52.77;30.97;;;;;;;;;;2089891;28;20681;-53
2020/12/09 05:54:51;;;;;;;55.37;31.73;;;;;;;;;;2081197;28;20234;-53
2020/12/09 05:55:54;;;;;;;65.10;31.90;;;;;;;;;;2082939;28;20196;-54